METAR Data
IDs: Format: Raw Decoded Include TAF

Data at: 1350 UTC 07 Jul 2020

KFDW 071335Z AUTO 08006KT 10SM -DZ SCT006 BKN047 OVC090 21/20 A3005 RMK AO1 P0001
KFDW 071315Z AUTO 09004KT 10SM -RA SCT046 BKN060 OVC090 21/20 A3004 RMK AO1 P0001
KFDW 071255Z AUTO 07005KT 4SM -RA SCT004 BKN049 OVC060 20/20 A3004 RMK AO1 P0014
KFDW 071235Z AUTO 11007KT 2 1/2SM +RA BKN004 BKN017 OVC036 20/20 A3004 RMK AO1 P0007
KFDW 071215Z AUTO 11007KT 5SM -DZ BKN004 BKN013 OVC070 20/20 A3004 RMK AO1 P0001
KFDW 071155Z AUTO 08005KT 5SM -RA SCT011 SCT050 OVC075 20/20 A3004 RMK AO1 P0004
KFDW 071135Z AUTO 07003KT 4SM RA SCT009 SCT016 OVC060 20/20 A3003 RMK AO1 P0003
KFDW 071115Z AUTO 08004KT 10SM -DZ OVC070 20/20 A3004 RMK AO1 P0001
KFDW 071055Z AUTO 06004KT 10SM DZ BKN070 BKN095 OVC110 20/20 A3003 RMK AO1 P0002
KFDW 071035Z AUTO 07003KT 2 1/2SM RA SCT070 OVC095 20/20 A3003 RMK AO1 VIS 2V3 P0002
KFDW 071015Z AUTO 08004KT 2SM RA SCT035 BKN070 OVC095 20/20 A3003 RMK AO1 VIS 1 1/4V3
KFDW 070955Z AUTO 07004KT 1 1/2SM BR SCT034 SCT070 OVC095 20/20 A3003 RMK AO1 VIS 1V5
KFDW 070935Z AUTO 06004KT 10SM OVC095 21/20 A3003 RMK AO1
KFDW 070915Z AUTO 08004KT 10SM OVC085 21/20 A3003 RMK AO1
KFDW 070855Z AUTO 08004KT 10SM OVC085 21/20 A3002 RMK AO1
KFDW 070835Z AUTO 07004KT 10SM BKN085 BKN110 21/20 A3002 RMK AO1
KFDW 070815Z AUTO 08004KT 10SM SCT095 SCT110 21/20 A3003 RMK AO1
KFDW 070755Z AUTO 07003KT 10SM SCT035 SCT095 21/20 A3004 RMK AO1
KFDW 070735Z AUTO 06003KT 10SM SCT035 BKN095 21/20 A3004 RMK AO1
KFDW 070715Z AUTO 06004KT 10SM SCT028 SCT075 OVC095 21/20 A3004 RMK AO1
KFDW 070635Z AUTO 06004KT 10SM SCT036 BKN090 21/21 A3006 RMK AO1
KFDW 070615Z AUTO 00000KT 10SM SCT075 SCT090 21/21 A3006 RMK AO1
KFDW 070555Z AUTO 00000KT 10SM SCT015 SCT065 SCT085 21/21 A3006 RMK AO1 LTG DSNT SE
KFDW 070535Z AUTO 07003KT 10SM SCT015 SCT065 BKN085 21/21 A3006 RMK AO1
KFDW 070515Z AUTO 05004KT 10SM SCT017 22/21 A3007 RMK AO1
KFDW 070455Z AUTO 06003KT 10SM OVC017 22/21 A3007 RMK AO1
KFDW 070435Z AUTO 00000KT 10SM -DZ BKN017 OVC023 22/21 A3007 RMK AO1
KFDW 070415Z AUTO 00000KT 10SM SCT015 BKN021 OVC029 22/21 A3006 RMK AO1
KFDW 070355Z AUTO 00000KT 4SM -RA BKN017 BKN033 OVC090 22/21 A3006 RMK AO1 P0006
KFDW 070335Z AUTO 05003KT 10SM SCT025 BKN040 OVC090 22/21 A3005 RMK AO1
KFDW 070315Z AUTO 04003KT 10SM SCT040 SCT049 SCT100 22/20 A3006 RMK AO1
KFDW 070255Z AUTO 02004KT 10SM CLR 22/20 A3006 RMK AO1
KFDW 070235Z AUTO 00000KT 10SM CLR 22/20 A3006 RMK AO1
KFDW 070215Z AUTO 14003KT 10SM SCT025 23/21 A3006 RMK AO1
KFDW 070155Z AUTO 00000KT 10SM SCT023 22/21 A3006 RMK AO1
KFDW 070135Z AUTO 00000KT 10SM CLR 23/21 A3006 RMK AO1
KFDW 070115Z AUTO 00000KT 10SM CLR 23/21 A3006 RMK AO1
KFDW 070055Z AUTO 00000KT 10SM SCT100 23/21 A3006 RMK AO1
KFDW 070035Z AUTO 16004KT 10SM SCT042 SCT100 23/21 A3006 RMK AO1
KFDW 070015Z AUTO 19003KT 10SM SCT042 23/21 A3007 RMK AO1
KFDW 062355Z AUTO 20003KT 10SM CLR 24/21 A3006 RMK AO1
KFDW 062335Z AUTO 20004KT 10SM SCT018 SCT026 SCT037 24/21 A3006 RMK AO1
KFDW 062315Z AUTO 16006KT 10SM SCT020 SCT028 BKN048 25/21 A3006 RMK AO1
KFDW 062255Z AUTO 16006KT 10SM SCT048 SCT075 25/21 A3006 RMK AO1
KFDW 062235Z AUTO 17007KT 10SM -RA SCT048 SCT075 SCT095 26/21 A3006 RMK AO1
KFDW 062215Z AUTO 16006KT 10SM SCT024 SCT033 SCT050 26/22 A3005 RMK AO1
KFDW 062155Z AUTO 20004KT 10SM BKN024 BKN029 OVC050 26/22 A3004 RMK AO1 LTG DSNT SW
KFDW 062135Z AUTO 17007KT 10SM SCT029 SCT035 BKN050 27/22 A3004 RMK AO1 LTG DSNT SW
KFDW 062115Z AUTO 17006KT 10SM SCT029 27/21 A3004 RMK AO1
KFDW 062055Z AUTO 15006KT 10SM CLR 28/21 A3004 RMK AO1 LTG DSNT S
KFDW 062035Z AUTO 15009KT 10SM SCT039 SCT047 SCT055 30/21 A3003 RMK AO1 LTG DSNT S AND SW
KFDW 062015Z AUTO 13008KT 074V144 10SM SCT029 SCT039 BKN048 28/21 A3002 RMK AO1 LTG DSNT SW AND NW
KFDW 061955Z AUTO 14007KT 10SM SCT100 30/22 A3003 RMK AO1 LTG DSNT S
KFDW 061935Z AUTO 15008KT 10SM OVC100 29/22 A3003 RMK AO1 LTG DSNT N NE AND S
KFDW 061915Z AUTO 12007KT 10SM OVC100 29/22 A3003 RMK AO1 LTG DSNT N AND SW
KFDW 061855Z AUTO 17009KT 10SM SCT031 SCT038 BKN048 30/21 A3004 RMK AO1 LTG DSNT NE
KFDW 061835Z AUTO 10006KT 10SM SCT033 BKN042 OVC085 30/21 A3005 RMK AO1 LTG DSNT NE
KFDW 061815Z AUTO 00000KT 10SM SCT028 BKN035 BKN041 31/21 A3004 RMK AO1 LTG DSNT NE
KFDW 061755Z AUTO 13003KT 10SM BKN028 BKN033 OVC085 29/21 A3004 RMK AO1 LTG DSNT N
KFDW 061735Z AUTO 15005KT 10SM SCT026 BKN031 OVC080 30/22 A3005 RMK AO1 LTG DSNT E AND NW
KFDW 061715Z AUTO 12004KT 10SM BKN024 BKN075 30/21 A3006 RMK AO1
KFDW 061655Z AUTO 15007KT 10SM BKN022 BKN065 29/22 A3008 RMK AO1
KFDW 061635Z AUTO 11005KT 10SM SCT020 SCT026 SCT065 28/22 A3008 RMK AO1 LTG DSNT SE
KFDW 061615Z AUTO 14003KT 10SM SCT018 SCT046 SCT049 27/21 A3008 RMK AO1
KFDW 061555Z AUTO 17003KT 10SM VCTS SCT016 SCT021 BKN046 25/22 A3009 RMK AO1 LTG DSNT S AND NW
KFDW 061535Z AUTO 10004KT 10SM SCT020 SCT025 SCT039 27/21 A3008 RMK AO1
KFDW 061515Z AUTO 13005KT 10SM BKN020 BKN024 BKN033 27/21 A3008 RMK AO1
KFDW 061455Z AUTO 12006KT 10SM SCT018 BKN024 BKN033 27/21 A3008 RMK AO1
KFDW 061435Z AUTO 00000KT 10SM BKN024 BKN037 26/21 A3008 RMK AO1
KFDW 061415Z AUTO 11005KT 10SM SCT014 SCT031 SCT038 26/21 A3007 RMK AO1
KFDW 061355Z AUTO 12007KT 10SM SCT012 25/21 A3007 RMK AO1
KFDW 061335Z AUTO 13006KT 10SM CLR 25/21 A3007 RMK AO1
KFDW 061315Z AUTO 12004KT 10SM SCT018 24/21 A3007 RMK AO1
KFDW 061255Z AUTO 11004KT 10SM SCT011 BKN018 BKN120 23/21 A3007 RMK AO1
KFDW 061235Z AUTO 09004KT 10SM SCT012 BKN120 23/21 A3006 RMK AO1
KFDW 061215Z AUTO 07005KT 10SM SCT012 OVC110 22/20 A3005 RMK AO1
KFDW 061155Z AUTO 06004KT 10SM SCT016 SCT028 OVC110 22/20 A3005 RMK AO1
KFDW 061135Z AUTO 07004KT 10SM BKN016 BKN028 BKN110 21/20 A3004 RMK AO1
KFDW 061115Z AUTO 04004KT 10SM BKN018 OVC024 21/20 A3004 RMK AO1
KFDW 061055Z AUTO 06004KT 10SM BKN018 BKN023 21/20 A3003 RMK AO1
KFDW 061035Z AUTO 09004KT 10SM SCT019 21/20 A3003 RMK AO1
KFDW 061015Z AUTO 11004KT 10SM CLR 21/20 A3003 RMK AO1
KFDW 060955Z AUTO 09004KT 10SM CLR 20/20 A3002 RMK AO1
KFDW 060935Z AUTO 06004KT 10SM CLR 21/20 A3001 RMK AO1
KFDW 060915Z AUTO 08003KT 10SM CLR 21/20 A3001 RMK AO1
KFDW 060855Z AUTO 06003KT 10SM CLR 21/20 A3000 RMK AO1
KFDW 060835Z AUTO 08004KT 10SM CLR 21/20 A3000 RMK AO1
KFDW 060815Z AUTO 08003KT 10SM CLR 21/20 A3001 RMK AO1
KFDW 060755Z AUTO 12003KT 10SM CLR 21/20 A3001 RMK AO1
KFDW 060735Z AUTO 11003KT 10SM CLR 22/20 A3001 RMK AO1
KFDW 060715Z AUTO 09003KT 10SM CLR 22/20 A3002 RMK AO1
KFDW 060655Z AUTO 10004KT 10SM CLR 22/20 A3002 RMK AO1
KFDW 060635Z AUTO 10004KT 10SM CLR 22/20 A3002 RMK AO1
KFDW 060615Z AUTO 00000KT 10SM CLR 22/20 A3002 RMK AO1
KFDW 060555Z AUTO 12003KT 10SM CLR 23/20 A3003 RMK AO1
KFDW 060535Z AUTO 11003KT 10SM CLR 23/20 A3003 RMK AO1
KFDW 060515Z AUTO 12003KT 10SM CLR 23/20 A3004 RMK AO1
KFDW 060455Z AUTO 14004KT 10SM CLR 23/20 A3003 RMK AO1
KFDW 060435Z AUTO 14004KT 10SM CLR 23/20 A3003 RMK AO1
KFDW 060415Z AUTO 15004KT 10SM CLR 24/19 A3003 RMK AO1
KFDW 060355Z AUTO 14005KT 10SM CLR 24/19 A3002 RMK AO1
KFDW 060335Z AUTO 14004KT 10SM CLR 24/18 A3002 RMK AO1
KFDW 060315Z AUTO 13003KT 10SM CLR 25/18 A3002 RMK AO1
KFDW 060255Z AUTO 00000KT 10SM CLR 25/18 A3001 RMK AO1
KFDW 060235Z AUTO 13003KT 10SM CLR 25/18 A3001 RMK AO1
KFDW 060215Z AUTO 14004KT 10SM CLR 26/18 A3000 RMK AO1
KFDW 060155Z AUTO 13003KT 10SM CLR 26/18 A2999 RMK AO1